CheckWX is a tool to help pilots better visualize weather data.  It is not intended as a substitute for an official pre-flight weather briefing.

22:22:07 UTC

KDEC METAR
Decatur Airport
Decatur, Illinois, USA
Current

13 mins ago

KDEC 242209Z 16013G22KT 10SM SCT043 29/20 A2987 RMK AO2 LTG DSNT SE AND S T02890200
Observed
May-24 @ 22:09 UTC
Wind
  • 160° at 13 KTS
  • Gusting to 22 KTS
Visibility
Flight Rules
VFR
Cloud Levels
  • Scattered at 4,300' AGL
Temperature
29°C / 84°F
Dewpoint
20°C / 68°F
Humidity
58%
Altimeter
29.87" Hg
Pressure
1011.52 hPa
Previous

28 mins ago

KDEC 242154Z 14008KT 10SM VCTS CLR 28/19 A2987 RMK AO2 LTG DSNT SE AND S SLP110 LTG DSNT SE MOVG ENE T02830194
Observed
May-24 @ 21:54 UTC
Wind
  • 140° at 8 KTS
Visibility
Flight Rules
VFR
Conditions
Area Thunderstorm
Cloud Levels
  • Clear skies
Temperature
28°C / 82°F
Dewpoint
19°C / 66°F
Humidity
58%
Altimeter
29.87" Hg
Pressure
1011.52 hPa
Previous

1 hour ago

KDEC 242054Z 14010G18KT 10SM BKN047 BKN055 OVC075 28/19 A2990 RMK AO2 SLP118 T02780189 58016
Observed
May-24 @ 20:54 UTC
Wind
  • 140° at 10 KTS
  • Gusting to 18 KTS
Visibility
Flight Rules
VFR
Cloud Levels
  • Broken at 4,700' AGL
  • Broken at 5,500' AGL
  • Overcast at 7,500' AGL
Temperature
28°C / 82°F
Dewpoint
19°C / 66°F
Humidity
58%
Altimeter
29.9" Hg
Pressure
1012.52 hPa